createdAt,value
2018-08-23T00:00:04.412Z,1014.67
2018-08-23T00:01:04.398Z,1014.64
2018-08-23T00:02:04.416Z,1014.65
2018-08-23T00:03:04.652Z,1014.67
2018-08-23T00:04:04.398Z,1014.68
2018-08-23T00:05:04.378Z,1014.68
2018-08-23T00:06:04.351Z,1014.66
2018-08-23T00:07:04.498Z,1014.71
2018-08-23T00:08:04.460Z,1014.7
2018-08-23T00:09:04.622Z,1014.7
2018-08-23T00:10:04.509Z,1014.72
2018-08-23T00:11:04.360Z,1014.68
2018-08-23T00:12:04.344Z,1014.72
2018-08-23T00:13:04.414Z,1014.73
2018-08-23T00:14:04.437Z,1014.73
2018-08-23T00:15:04.403Z,1014.74
2018-08-23T00:16:04.393Z,1014.78
2018-08-23T00:17:04.295Z,1014.74
2018-08-23T00:18:04.619Z,1014.76
2018-08-23T00:19:04.236Z,1014.75
2018-08-23T00:20:04.355Z,1014.77
2018-08-23T00:21:04.375Z,1014.78
2018-08-23T00:22:04.255Z,1014.76
2018-08-23T00:23:04.414Z,1014.73
2018-08-23T00:24:04.431Z,1014.75
2018-08-23T00:25:04.667Z,1014.73
2018-08-23T00:26:04.505Z,1014.74
2018-08-23T00:27:04.475Z,1014.73
2018-08-23T00:28:04.285Z,1014.74
2018-08-23T00:29:04.361Z,1014.71
2018-08-23T00:30:04.467Z,1014.78
2018-08-23T00:31:04.344Z,1014.8
2018-08-23T00:32:04.347Z,1014.77
2018-08-23T00:33:04.526Z,1014.79
2018-08-23T00:34:04.210Z,1014.71
2018-08-23T00:35:04.629Z,1014.79
2018-08-23T00:36:04.397Z,1014.75
2018-08-23T00:37:04.340Z,1014.77
2018-08-23T00:38:04.470Z,1014.78
2018-08-23T00:39:04.282Z,1014.76
2018-08-23T00:40:04.250Z,1014.74
2018-08-23T00:41:04.502Z,1014.75
2018-08-23T00:42:04.350Z,1014.74
2018-08-23T00:43:04.437Z,1014.74
2018-08-23T00:44:04.452Z,1014.77
2018-08-23T00:45:04.271Z,1014.74
2018-08-23T00:46:04.531Z,1014.77
2018-08-23T00:47:04.344Z,1014.74
2018-08-23T00:48:04.295Z,1014.77
2018-08-23T00:49:04.471Z,1014.78
2018-08-23T00:50:04.501Z,1014.78
2018-08-23T00:51:04.368Z,1014.78
2018-08-23T00:52:04.337Z,1014.73
2018-08-23T00:53:04.228Z,1014.73
2018-08-23T00:54:04.616Z,1014.73
2018-08-23T00:55:04.366Z,1014.73
2018-08-23T00:56:04.247Z,1014.72
2018-08-23T00:57:04.420Z,1014.74
2018-08-23T00:58:04.444Z,1014.73
2018-08-23T00:59:04.368Z,1014.7
2018-08-23T01:00:04.475Z,1014.7
2018-08-23T01:01:04.482Z,1014.69
2018-08-23T01:02:04.392Z,1014.69
2018-08-23T01:03:04.521Z,1014.68
2018-08-23T01:04:04.456Z,1014.68
2018-08-23T01:05:04.554Z,1014.68
2018-08-23T01:06:04.323Z,1014.67
2018-08-23T01:07:04.248Z,1014.63
2018-08-23T01:08:04.368Z,1014.65
2018-08-23T01:09:04.424Z,1014.6
2018-08-23T01:10:04.425Z,1014.6
2018-08-23T01:11:04.238Z,1014.62
2018-08-23T01:12:04.464Z,1014.63
2018-08-23T01:13:04.446Z,1014.61
2018-08-23T01:14:04.350Z,1014.62
2018-08-23T01:15:04.312Z,1014.61
2018-08-23T01:16:04.702Z,1014.59
2018-08-23T01:17:05.277Z,1014.61
2018-08-23T01:18:04.430Z,1014.61
2018-08-23T01:19:04.338Z,1014.61
2018-08-23T01:20:04.275Z,1014.62
2018-08-23T01:21:04.463Z,1014.65
2018-08-23T01:22:04.526Z,1014.64
2018-08-23T01:23:04.859Z,1014.67
2018-08-23T01:24:04.292Z,1014.63
2018-08-23T01:25:04.415Z,1014.6
2018-08-23T01:26:04.412Z,1014.6
2018-08-23T01:27:04.571Z,1014.63
2018-08-23T01:28:04.314Z,1014.62
2018-08-23T01:29:04.248Z,1014.59
2018-08-23T01:30:04.305Z,1014.57
2018-08-23T01:31:04.341Z,1014.56
2018-08-23T01:32:04.682Z,1014.55
2018-08-23T01:33:04.428Z,1014.53
2018-08-23T01:34:04.500Z,1014.57
2018-08-23T01:35:04.430Z,1014.55
2018-08-23T01:36:04.332Z,1014.54
2018-08-23T01:37:04.420Z,1014.55
2018-08-23T01:38:04.468Z,1014.53
2018-08-23T01:39:04.408Z,1014.55
2018-08-23T01:40:04.410Z,1014.49
2018-08-23T01:41:04.444Z,1014.52
2018-08-23T01:42:04.412Z,1014.49
2018-08-23T01:43:04.713Z,1014.47
2018-08-23T01:44:04.449Z,1014.43
2018-08-23T01:45:04.524Z,1014.43
2018-08-23T01:46:04.354Z,1014.42
2018-08-23T01:47:04.457Z,1014.41
2018-08-23T01:48:04.447Z,1014.42
2018-08-23T01:49:04.444Z,1014.4
2018-08-23T01:50:04.390Z,1014.37
2018-08-23T01:51:04.542Z,1014.38
2018-08-23T01:52:04.216Z,1014.39
2018-08-23T01:53:04.289Z,1014.42
2018-08-23T01:54:04.360Z,1014.38
2018-08-23T01:55:04.371Z,1014.38
2018-08-23T01:56:04.527Z,1014.4
2018-08-23T01:57:04.293Z,1014.39
2018-08-23T01:58:04.451Z,1014.38
2018-08-23T01:59:04.442Z,1014.39
2018-08-23T02:00:04.491Z,1014.39
2018-08-23T02:01:04.345Z,1014.35
2018-08-23T02:02:04.317Z,1014.34
2018-08-23T02:03:04.295Z,1014.39
2018-08-23T02:04:04.500Z,1014.38
2018-08-23T02:05:04.309Z,1014.36
2018-08-23T02:06:04.299Z,1014.32
2018-08-23T02:07:04.641Z,1014.35
2018-08-23T02:08:04.321Z,1014.36
2018-08-23T02:09:04.282Z,1014.37
2018-08-23T02:10:04.410Z,1014.35
2018-08-23T02:11:04.291Z,1014.34
2018-08-23T02:12:04.407Z,1014.37
2018-08-23T02:13:04.287Z,1014.33
2018-08-23T02:14:04.287Z,1014.31
2018-08-23T02:15:04.175Z,1014.27
2018-08-23T02:16:04.338Z,1014.32
2018-08-23T02:17:04.447Z,1014.29
2018-08-23T02:18:04.261Z,1014.29
2018-08-23T02:19:04.321Z,1014.25
2018-08-23T02:20:04.370Z,1014.28
2018-08-23T02:21:04.405Z,1014.27
2018-08-23T02:22:04.301Z,1014.24
2018-08-23T02:23:04.377Z,1014.28
2018-08-23T02:24:04.447Z,1014.32
2018-08-23T02:25:04.322Z,1014.31
2018-08-23T02:26:04.191Z,1014.3
2018-08-23T02:27:04.532Z,1014.29
2018-08-23T02:28:04.308Z,1014.29
2018-08-23T02:29:18.893Z,1014.32
2018-08-23T02:30:04.307Z,1014.31
2018-08-23T02:31:04.321Z,1014.32
2018-08-23T02:32:04.470Z,1014.29
2018-08-23T02:33:04.335Z,1014.29
2018-08-23T02:34:04.385Z,1014.31
2018-08-23T02:35:04.437Z,1014.25
2018-08-23T02:36:04.750Z,1014.28
2018-08-23T02:37:04.265Z,1014.31
2018-08-23T02:38:04.534Z,1014.32
2018-08-23T02:39:04.422Z,1014.27
2018-08-23T02:40:04.590Z,1014.33
2018-08-23T02:41:04.328Z,1014.3
2018-08-23T02:42:04.346Z,1014.33
2018-08-23T02:43:04.265Z,1014.33
2018-08-23T02:44:04.366Z,1014.33
2018-08-23T02:45:04.176Z,1014.35
2018-08-23T02:46:04.497Z,1014.35
2018-08-23T02:47:04.360Z,1014.34
2018-08-23T02:48:04.217Z,1014.33
2018-08-23T02:49:04.340Z,1014.31
2018-08-23T02:50:04.278Z,1014.33
2018-08-23T02:51:04.260Z,1014.29
2018-08-23T02:52:04.746Z,1014.33
2018-08-23T02:53:04.396Z,1014.29
2018-08-23T02:54:04.268Z,1014.27
2018-08-23T02:55:04.472Z,1014.31
2018-08-23T02:56:04.436Z,1014.32
2018-08-23T02:57:04.449Z,1014.32
2018-08-23T02:58:04.295Z,1014.31
2018-08-23T02:59:04.276Z,1014.3
2018-08-23T03:00:04.311Z,1014.28
2018-08-23T03:01:04.352Z,1014.3
2018-08-23T03:02:04.772Z,1014.34
2018-08-23T03:03:04.486Z,1014.33
2018-08-23T03:04:04.226Z,1014.35
2018-08-23T03:05:04.400Z,1014.31
2018-08-23T03:06:04.196Z,1014.36
2018-08-23T03:07:04.358Z,1014.34
2018-08-23T03:08:04.308Z,1014.41
2018-08-23T03:09:04.316Z,1014.38
2018-08-23T03:10:04.324Z,1014.4
2018-08-23T03:11:04.255Z,1014.42
2018-08-23T03:12:04.267Z,1014.4
2018-08-23T03:13:04.291Z,1014.49
2018-08-23T03:14:04.685Z,1014.48
2018-08-23T03:15:04.428Z,1014.44
2018-08-23T03:16:04.267Z,1014.4
2018-08-23T03:17:04.229Z,1014.41
2018-08-23T03:18:04.523Z,1014.43
2018-08-23T03:19:04.429Z,1014.42
2018-08-23T03:20:04.480Z,1014.42
2018-08-23T03:21:04.676Z,1014.4
2018-08-23T03:22:04.476Z,1014.39
2018-08-23T03:23:04.231Z,1014.37
2018-08-23T03:24:04.328Z,1014.35
2018-08-23T03:25:04.406Z,1014.32
2018-08-23T03:26:04.342Z,1014.27
2018-08-23T03:27:04.405Z,1014.32
2018-08-23T03:28:04.272Z,1014.27
2018-08-23T03:29:04.648Z,1014.26
2018-08-23T03:30:04.659Z,1014.28
2018-08-23T03:31:04.515Z,1014.35
2018-08-23T03:32:04.293Z,1014.27
2018-08-23T03:33:04.298Z,1014.32
2018-08-23T03:34:04.235Z,1014.3
2018-08-23T03:35:04.444Z,1014.29
2018-08-23T03:36:04.385Z,1014.33
2018-08-23T03:37:04.222Z,1014.28
2018-08-23T03:38:04.417Z,1014.33
2018-08-23T03:39:04.278Z,1014.25
2018-08-23T03:40:04.347Z,1014.29
2018-08-23T03:41:04.395Z,1014.26
2018-08-23T03:42:04.424Z,1014.22
2018-08-23T03:43:04.261Z,1014.2
2018-08-23T03:44:04.281Z,1014.21
2018-08-23T03:45:04.273Z,1014.17
2018-08-23T03:46:04.432Z,1014.17
2018-08-23T03:47:04.358Z,1014.19
2018-08-23T03:48:04.234Z,1014.19
2018-08-23T03:49:04.325Z,1014.22
2018-08-23T03:50:04.463Z,1014.18
2018-08-23T03:51:04.335Z,1014.2
2018-08-23T03:52:04.544Z,1014.16
2018-08-23T03:53:04.297Z,1014.17
2018-08-23T03:54:04.306Z,1014.14
2018-08-23T03:55:04.356Z,1014.15
2018-08-23T03:56:04.191Z,1014.14
2018-08-23T03:57:04.387Z,1014.1
2018-08-23T03:58:04.180Z,1014.12
2018-08-23T03:59:04.321Z,1014.16
2018-08-23T04:00:04.364Z,1014.21
2018-08-23T04:01:04.463Z,1014.25
2018-08-23T04:02:04.244Z,1014.23
2018-08-23T04:03:04.411Z,1014.25
2018-08-23T04:04:04.309Z,1014.23
2018-08-23T04:05:04.706Z,1014.23
2018-08-23T04:06:04.314Z,1014.24
2018-08-23T04:07:04.135Z,1014.25
2018-08-23T04:08:04.358Z,1014.23
2018-08-23T04:09:04.278Z,1014.29
2018-08-23T04:10:04.488Z,1014.28
2018-08-23T04:11:04.431Z,1014.31
2018-08-23T04:12:04.483Z,1014.3
2018-08-23T04:13:04.281Z,1014.29
2018-08-23T04:14:04.359Z,1014.28
2018-08-23T04:15:04.212Z,1014.33
2018-08-23T04:16:04.673Z,1014.32
2018-08-23T04:17:04.370Z,1014.38
2018-08-23T04:18:04.713Z,1014.36
2018-08-23T04:19:04.251Z,1014.35
2018-08-23T04:20:04.581Z,1014.35
2018-08-23T04:21:04.385Z,1014.36
2018-08-23T04:22:04.506Z,1014.39
2018-08-23T04:23:04.252Z,1014.46
2018-08-23T04:24:04.322Z,1014.43
2018-08-23T04:25:04.435Z,1014.45
2018-08-23T04:26:04.395Z,1014.43
2018-08-23T04:27:04.162Z,1014.46
2018-08-23T04:28:04.281Z,1014.5
2018-08-23T04:29:04.462Z,1014.49
2018-08-23T04:30:04.373Z,1014.47
2018-08-23T04:31:04.222Z,1014.49
2018-08-23T04:32:04.278Z,1014.48
2018-08-23T04:33:04.463Z,1014.49
2018-08-23T04:34:04.425Z,1014.48
2018-08-23T04:35:04.490Z,1014.52
2018-08-23T04:36:04.362Z,1014.53
2018-08-23T04:37:04.405Z,1014.49
2018-08-23T04:38:04.300Z,1014.53
2018-08-23T04:39:04.337Z,1014.52
2018-08-23T04:40:04.457Z,1014.52
2018-08-23T04:41:04.316Z,1014.51
2018-08-23T04:42:04.308Z,1014.55
2018-08-23T04:43:04.449Z,1014.5
2018-08-23T04:44:04.229Z,1014.48
2018-08-23T04:45:04.376Z,1014.55
2018-08-23T04:46:04.304Z,1014.55
2018-08-23T04:47:04.418Z,1014.5
2018-08-23T04:48:04.319Z,1014.51
2018-08-23T04:49:04.210Z,1014.51
2018-08-23T04:50:04.223Z,1014.53
2018-08-23T04:51:04.245Z,1014.51
2018-08-23T04:52:04.609Z,1014.46
2018-08-23T04:53:04.419Z,1014.48
2018-08-23T04:54:04.396Z,1014.46
2018-08-23T04:55:04.277Z,1014.45
2018-08-23T04:56:04.173Z,1014.43
2018-08-23T04:57:04.270Z,1014.4
2018-08-23T04:58:04.246Z,1014.44
2018-08-23T04:59:04.423Z,1014.42
2018-08-23T05:00:04.460Z,1014.44
2018-08-23T05:01:04.427Z,1014.46
2018-08-23T05:02:04.379Z,1014.41
2018-08-23T05:03:04.410Z,1014.4
2018-08-23T05:04:04.660Z,1014.43
2018-08-23T05:05:04.393Z,1014.47
2018-08-23T05:06:04.388Z,1014.42
2018-08-23T05:07:04.248Z,1014.47
2018-08-23T05:08:04.221Z,1014.52
2018-08-23T05:09:04.287Z,1014.48
2018-08-23T05:10:04.436Z,1014.47
2018-08-23T05:11:04.171Z,1014.54
2018-08-23T05:12:04.571Z,1014.55
2018-08-23T05:13:04.343Z,1014.51
2018-08-23T05:14:04.660Z,1014.57
2018-08-23T05:15:04.371Z,1014.54
2018-08-23T05:16:04.479Z,1014.56
2018-08-23T05:17:04.356Z,1014.56
2018-08-23T05:18:04.328Z,1014.56
2018-08-23T05:19:04.384Z,1014.6
2018-08-23T05:20:04.382Z,1014.58
2018-08-23T05:21:04.451Z,1014.62
2018-08-23T05:22:04.510Z,1014.62
2018-08-23T05:23:04.452Z,1014.6
2018-08-23T05:24:04.433Z,1014.59
2018-08-23T05:25:04.291Z,1014.58
2018-08-23T05:26:04.235Z,1014.59
2018-08-23T05:27:04.488Z,1014.62
2018-08-23T05:28:04.515Z,1014.59
2018-08-23T05:29:04.383Z,1014.61
2018-08-23T05:30:04.325Z,1014.63
2018-08-23T05:31:04.511Z,1014.6
2018-08-23T05:32:04.324Z,1014.62
2018-08-23T05:33:04.359Z,1014.6
2018-08-23T05:34:04.454Z,1014.56
2018-08-23T05:35:04.476Z,1014.57
2018-08-23T05:36:04.712Z,1014.57
2018-08-23T05:37:04.313Z,1014.54
2018-08-23T05:38:04.449Z,1014.54
2018-08-23T05:39:04.404Z,1014.56
2018-08-23T05:40:04.352Z,1014.54
2018-08-23T05:41:04.548Z,1014.59
2018-08-23T05:42:04.342Z,1014.57
2018-08-23T05:43:04.417Z,1014.54
2018-08-23T05:44:04.218Z,1014.54
2018-08-23T05:45:04.368Z,1014.58
2018-08-23T05:46:04.478Z,1014.58
2018-08-23T05:47:04.418Z,1014.6
2018-08-23T05:48:04.108Z,1014.57
2018-08-23T05:49:04.266Z,1014.58
2018-08-23T05:50:04.329Z,1014.58
2018-08-23T05:51:04.338Z,1014.58
2018-08-23T05:52:04.368Z,1014.54
2018-08-23T05:53:04.414Z,1014.54
2018-08-23T05:54:04.405Z,1014.52
2018-08-23T05:55:04.527Z,1014.49
2018-08-23T05:56:04.159Z,1014.46
2018-08-23T05:57:04.351Z,1014.52
2018-08-23T05:58:04.357Z,1014.53
2018-08-23T05:59:04.497Z,1014.55
2018-08-23T06:00:04.271Z,1014.49
2018-08-23T06:01:04.402Z,1014.52
2018-08-23T06:02:04.374Z,1014.54
2018-08-23T06:03:04.459Z,1014.51
2018-08-23T06:04:04.338Z,1014.52
2018-08-23T06:05:04.348Z,1014.51
2018-08-23T06:06:04.407Z,1014.49
2018-08-23T06:07:04.465Z,1014.48
2018-08-23T06:08:04.470Z,1014.45
2018-08-23T06:09:04.498Z,1014.46
2018-08-23T06:10:04.214Z,1014.45
2018-08-23T06:11:04.312Z,1014.41
2018-08-23T06:12:04.341Z,1014.41
2018-08-23T06:13:04.352Z,1014.41
2018-08-23T06:14:04.463Z,1014.39
2018-08-23T06:15:04.260Z,1014.36
2018-08-23T06:16:04.292Z,1014.4
2018-08-23T06:17:04.528Z,1014.35
2018-08-23T06:18:04.299Z,1014.31
2018-08-23T06:19:04.289Z,1014.34
2018-08-23T06:20:04.830Z,1014.3
2018-08-23T06:21:04.158Z,1014.31
2018-08-23T06:22:04.982Z,1014.34
2018-08-23T06:23:04.403Z,1014.29
2018-08-23T06:24:04.896Z,1014.32
2018-08-23T06:25:04.894Z,1014.29
2018-08-23T06:26:04.403Z,1014.3
2018-08-23T06:27:04.525Z,1014.3
2018-08-23T06:28:04.435Z,1014.29
2018-08-23T06:29:04.321Z,1014.31
2018-08-23T06:30:04.355Z,1014.33
2018-08-23T06:31:04.425Z,1014.4
2018-08-23T06:32:04.275Z,1014.34
2018-08-23T06:33:05.203Z,1014.35
2018-08-23T06:34:04.464Z,1014.33
2018-08-23T06:35:04.400Z,1014.33
2018-08-23T06:36:04.325Z,1014.31
2018-08-23T06:37:04.765Z,1014.26
2018-08-23T06:38:04.411Z,1014.25
2018-08-23T06:39:04.741Z,1014.26
2018-08-23T06:40:04.272Z,1014.27
2018-08-23T06:41:04.437Z,1014.29
2018-08-23T06:42:04.673Z,1014.29
2018-08-23T06:43:04.260Z,1014.33
2018-08-23T06:44:04.365Z,1014.32
2018-08-23T06:45:04.410Z,1014.3
2018-08-23T06:46:04.513Z,1014.31
2018-08-23T06:47:06.331Z,1014.29
2018-08-23T06:48:05.545Z,1014.27
2018-08-23T06:49:04.443Z,1014.2
2018-08-23T06:50:04.442Z,1014.21
2018-08-23T06:51:04.581Z,1014.23
2018-08-23T06:52:04.501Z,1014.23
2018-08-23T06:53:04.400Z,1014.28
2018-08-23T06:54:04.284Z,1014.23
2018-08-23T06:55:04.237Z,1014.19
2018-08-23T06:56:04.262Z,1014.23
2018-08-23T06:57:04.182Z,1014.26
2018-08-23T06:58:04.307Z,1014.31
2018-08-23T06:59:04.553Z,1014.36
2018-08-23T07:00:04.446Z,1014.33
2018-08-23T07:01:04.345Z,1014.34
2018-08-23T07:02:04.382Z,1014.34
2018-08-23T07:03:04.306Z,1014.32
2018-08-23T07:04:04.389Z,1014.33
2018-08-23T07:05:04.482Z,1014.33
2018-08-23T07:06:04.238Z,1014.35
2018-08-23T07:07:04.388Z,1014.3
2018-08-23T07:08:04.285Z,1014.34
2018-08-23T07:09:04.337Z,1014.32
2018-08-23T07:10:04.310Z,1014.28
2018-08-23T07:11:04.456Z,1014.29
2018-08-23T07:12:04.833Z,1014.24
2018-08-23T07:13:04.350Z,1014.3
2018-08-23T07:14:04.298Z,1014.22
2018-08-23T07:15:04.799Z,1014.2
2018-08-23T07:16:04.800Z,1014.2
2018-08-23T07:17:04.841Z,1014.19
2018-08-23T07:18:04.934Z,1014.22
2018-08-23T07:19:04.296Z,1014.19
2018-08-23T07:20:04.234Z,1014.25
2018-08-23T07:21:04.476Z,1014.24
2018-08-23T07:22:04.614Z,1014.24
2018-08-23T07:23:04.705Z,1014.22
2018-08-23T07:24:04.316Z,1014.27
2018-08-23T07:25:04.521Z,1014.22
2018-08-23T07:26:04.586Z,1014.24
2018-08-23T07:27:04.260Z,1014.22
2018-08-23T07:28:04.294Z,1014.3
2018-08-23T07:29:04.533Z,1014.28
2018-08-23T07:30:04.736Z,1014.34
2018-08-23T07:31:07.653Z,1014.34
2018-08-23T07:32:04.150Z,1014.39
2018-08-23T07:33:04.791Z,1014.36
2018-08-23T07:34:04.515Z,1014.4
2018-08-23T07:35:04.614Z,1014.41
2018-08-23T07:36:04.292Z,1014.48
2018-08-23T07:37:04.252Z,1014.46
2018-08-23T07:38:04.968Z,1014.48
2018-08-23T07:39:04.479Z,1014.51
2018-08-23T07:40:04.688Z,1014.49
2018-08-23T07:41:04.280Z,1014.49
2018-08-23T07:42:04.702Z,1014.42
2018-08-23T07:43:04.518Z,1014.5
2018-08-23T07:44:04.339Z,1014.49
2018-08-23T07:45:04.442Z,1014.49
2018-08-23T07:46:04.481Z,1014.47
2018-08-23T07:47:04.372Z,1014.53
2018-08-23T07:48:04.572Z,1014.48
2018-08-23T07:49:05.145Z,1014.5
2018-08-23T07:50:04.412Z,1014.5
2018-08-23T07:51:04.319Z,1014.49
2018-08-23T07:52:04.337Z,1014.5
2018-08-23T07:53:05.138Z,1014.5
2018-08-23T07:54:04.213Z,1014.47
2018-08-23T07:55:04.646Z,1014.46
2018-08-23T07:56:04.388Z,1014.43
2018-08-23T07:57:04.332Z,1014.45
2018-08-23T07:58:04.553Z,1014.44
2018-08-23T07:59:04.285Z,1014.45
2018-08-23T08:00:04.373Z,1014.48
2018-08-23T08:01:04.908Z,1014.47
2018-08-23T08:02:04.494Z,1014.44
2018-08-23T08:03:04.271Z,1014.47
2018-08-23T08:04:04.272Z,1014.45
2018-08-23T08:05:04.392Z,1014.48
2018-08-23T08:06:04.357Z,1014.47
2018-08-23T08:07:04.127Z,1014.41
2018-08-23T08:08:04.407Z,1014.4
2018-08-23T08:09:04.486Z,1014.39
2018-08-23T08:10:04.255Z,1014.39
2018-08-23T08:11:04.237Z,1014.33
2018-08-23T08:12:04.247Z,1014.39
2018-08-23T08:13:04.231Z,1014.42
2018-08-23T08:14:04.390Z,1014.36
2018-08-23T08:15:04.574Z,1014.38
2018-08-23T08:16:04.422Z,1014.38
2018-08-23T08:17:04.560Z,1014.36
2018-08-23T08:18:04.244Z,1014.37
2018-08-23T08:19:04.345Z,1014.42
2018-08-23T08:20:04.345Z,1014.38
2018-08-23T08:21:04.385Z,1014.44
2018-08-23T08:22:04.624Z,1014.4
2018-08-23T08:23:04.269Z,1014.43
2018-08-23T08:24:04.699Z,1014.4
2018-08-23T08:25:04.266Z,1014.4
2018-08-23T08:26:04.369Z,1014.36
2018-08-23T08:27:04.715Z,1014.4
2018-08-23T08:28:04.396Z,1014.38
2018-08-23T08:29:04.447Z,1014.39
2018-08-23T08:30:04.331Z,1014.37
2018-08-23T08:31:04.491Z,1014.39
2018-08-23T08:32:04.491Z,1014.38
2018-08-23T08:33:04.559Z,1014.37
2018-08-23T08:34:04.237Z,1014.39
2018-08-23T08:35:04.253Z,1014.39
2018-08-23T08:36:04.268Z,1014.34
2018-08-23T08:37:04.136Z,1014.36
2018-08-23T08:38:04.591Z,1014.39
2018-08-23T08:39:04.342Z,1014.39
2018-08-23T08:40:04.240Z,1014.37
2018-08-23T08:41:04.468Z,1014.4
2018-08-23T08:42:04.321Z,1014.37
2018-08-23T08:43:04.470Z,1014.36
2018-08-23T08:44:04.369Z,1014.4
2018-08-23T08:45:04.609Z,1014.35
2018-08-23T08:46:04.430Z,1014.38
2018-08-23T08:47:04.466Z,1014.37
2018-08-23T08:48:04.351Z,1014.4
2018-08-23T08:49:04.339Z,1014.35
2018-08-23T08:50:04.514Z,1014.38
2018-08-23T08:51:04.485Z,1014.38
2018-08-23T08:52:04.387Z,1014.38
2018-08-23T08:53:04.424Z,1014.35
2018-08-23T08:54:04.308Z,1014.38
2018-08-23T08:55:04.527Z,1014.36
2018-08-23T08:56:04.281Z,1014.32
2018-08-23T08:57:04.404Z,1014.26
2018-08-23T08:58:04.472Z,1014.3
2018-08-23T08:59:04.591Z,1014.31
2018-08-23T09:00:04.517Z,1014.25
2018-08-23T09:01:04.328Z,1014.3
2018-08-23T09:02:04.306Z,1014.28
2018-08-23T09:03:04.456Z,1014.23
2018-08-23T09:04:04.405Z,1014.19
2018-08-23T09:05:04.467Z,1014.2
2018-08-23T09:06:04.429Z,1014.18
2018-08-23T09:07:04.441Z,1014.17
2018-08-23T09:08:04.222Z,1014.21
2018-08-23T09:09:04.240Z,1014.14
2018-08-23T09:10:04.076Z,1014.15
2018-08-23T09:11:04.393Z,1014.14
2018-08-23T09:12:04.259Z,1014.14
2018-08-23T09:13:04.279Z,1014.15
2018-08-23T09:14:04.255Z,1014.12
2018-08-23T09:15:04.242Z,1014.16
2018-08-23T09:16:04.408Z,1014.11
2018-08-23T09:17:04.369Z,1014.12
2018-08-23T09:18:04.473Z,1014.12
2018-08-23T09:19:04.382Z,1014.1
2018-08-23T09:20:04.534Z,1014.1
2018-08-23T09:21:04.418Z,1014.09
2018-08-23T09:22:04.433Z,1014.1
2018-08-23T09:23:04.351Z,1014.09
2018-08-23T09:24:04.324Z,1014.11
2018-08-23T09:25:04.249Z,1014.07
2018-08-23T09:26:04.390Z,1014.08
2018-08-23T09:27:04.436Z,1014.05
2018-08-23T09:28:04.283Z,1014.04
2018-08-23T09:29:04.281Z,1014.09
2018-08-23T09:30:04.405Z,1014.11
2018-08-23T09:31:04.753Z,1014.08
2018-08-23T09:32:04.637Z,1014.07
2018-08-23T09:33:04.446Z,1014.07
2018-08-23T09:34:04.342Z,1014.08
2018-08-23T09:35:04.897Z,1014.09
2018-08-23T09:36:04.554Z,1014.08
2018-08-23T09:37:04.430Z,1014.04
2018-08-23T09:38:04.330Z,1014.11
2018-08-23T09:39:04.341Z,1014.07
2018-08-23T09:40:04.358Z,1014.07
2018-08-23T09:41:04.330Z,1014.05
2018-08-23T09:42:04.137Z,1014.03
2018-08-23T09:43:04.389Z,1014.04
2018-08-23T09:44:04.372Z,1014.05
2018-08-23T09:45:04.304Z,1014.01
2018-08-23T09:46:04.346Z,1014.03
2018-08-23T09:47:04.231Z,1014.06
2018-08-23T09:48:04.352Z,1014.04
2018-08-23T09:49:04.529Z,1014.02
2018-08-23T09:50:04.418Z,1014.01
2018-08-23T09:51:04.633Z,1013.99
2018-08-23T09:52:04.273Z,1013.96
2018-08-23T09:53:04.527Z,1013.94
2018-08-23T09:54:04.181Z,1013.91
2018-08-23T09:55:04.271Z,1013.92
2018-08-23T09:56:04.124Z,1013.93
2018-08-23T09:57:04.295Z,1013.88
2018-08-23T09:58:04.372Z,1013.83
2018-08-23T09:59:04.345Z,1013.84
2018-08-23T10:00:04.361Z,1013.84
2018-08-23T10:01:04.859Z,1013.84
2018-08-23T10:02:04.553Z,1013.82
2018-08-23T10:03:04.386Z,1013.8
2018-08-23T10:04:04.354Z,1013.8
2018-08-23T10:05:04.380Z,1013.78
2018-08-23T10:06:04.478Z,1013.78
2018-08-23T10:07:04.247Z,1013.79
2018-08-23T10:08:04.251Z,1013.75
2018-08-23T10:09:04.174Z,1013.8
2018-08-23T10:10:04.321Z,1013.77
2018-08-23T10:11:04.359Z,1013.7
2018-08-23T10:12:04.361Z,1013.74
2018-08-23T10:13:04.342Z,1013.77
2018-08-23T10:14:04.185Z,1013.73
2018-08-23T10:15:04.421Z,1013.75
2018-08-23T10:16:04.150Z,1013.76
2018-08-23T10:17:04.264Z,1013.72
2018-08-23T10:18:04.202Z,1013.74
2018-08-23T10:19:04.357Z,1013.7
2018-08-23T10:20:04.170Z,1013.67
2018-08-23T10:21:04.461Z,1013.71
2018-08-23T10:22:04.230Z,1013.69
2018-08-23T10:23:04.210Z,1013.69
2018-08-23T10:24:04.416Z,1013.68
2018-08-23T10:25:04.306Z,1013.65
2018-08-23T10:26:04.680Z,1013.72
2018-08-23T10:27:04.181Z,1013.69
2018-08-23T10:28:04.285Z,1013.64
2018-08-23T10:29:04.296Z,1013.65
2018-08-23T10:30:04.306Z,1013.65
2018-08-23T10:31:04.442Z,1013.66
2018-08-23T10:32:04.508Z,1013.63
2018-08-23T10:33:04.404Z,1013.66
2018-08-23T10:34:04.323Z,1013.62
2018-08-23T10:35:04.332Z,1013.63
2018-08-23T10:36:04.286Z,1013.61
2018-08-23T10:37:04.263Z,1013.57
2018-08-23T10:38:04.269Z,1013.55
2018-08-23T10:39:04.253Z,1013.58
2018-08-23T10:40:04.263Z,1013.6
2018-08-23T10:41:04.153Z,1013.55
2018-08-23T10:42:04.339Z,1013.53
2018-08-23T10:43:04.480Z,1013.55
2018-08-23T10:44:04.316Z,1013.59
2018-08-23T10:45:04.355Z,1013.58
2018-08-23T10:46:04.264Z,1013.53
2018-08-23T10:47:04.155Z,1013.55
2018-08-23T10:48:04.555Z,1013.51
2018-08-23T10:49:04.149Z,1013.47
2018-08-23T10:50:04.420Z,1013.45
2018-08-23T10:51:05.082Z,1013.48
2018-08-23T10:52:04.308Z,1013.44
2018-08-23T10:53:04.239Z,1013.51
2018-08-23T10:54:04.429Z,1013.47
2018-08-23T10:55:04.325Z,1013.51
2018-08-23T10:56:04.371Z,1013.46
2018-08-23T10:57:04.562Z,1013.45
2018-08-23T10:58:04.114Z,1013.45
2018-08-23T10:59:04.613Z,1013.44
2018-08-23T11:00:04.229Z,1013.43
2018-08-23T11:01:04.233Z,1013.41
2018-08-23T11:02:04.260Z,1013.42
2018-08-23T11:03:04.414Z,1013.41
2018-08-23T11:04:04.390Z,1013.42
2018-08-23T11:05:04.208Z,1013.39
2018-08-23T11:06:04.288Z,1013.41
2018-08-23T11:07:04.198Z,1013.41
2018-08-23T11:08:04.616Z,1013.37
2018-08-23T11:09:04.128Z,1013.34
2018-08-23T11:10:04.462Z,1013.34
2018-08-23T11:11:04.097Z,1013.3
2018-08-23T11:12:04.131Z,1013.37
2018-08-23T11:13:04.614Z,1013.31
2018-08-23T11:14:04.221Z,1013.31
2018-08-23T11:15:04.199Z,1013.32
2018-08-23T11:16:04.260Z,1013.33
2018-08-23T11:17:05.094Z,1013.32
2018-08-23T11:18:04.481Z,1013.31
2018-08-23T11:19:04.250Z,1013.32
2018-08-23T11:20:04.083Z,1013.25
2018-08-23T11:21:04.442Z,1013.23
2018-08-23T11:22:04.212Z,1013.28
2018-08-23T11:23:04.916Z,1013.25
2018-08-23T11:24:04.868Z,1013.23
2018-08-23T11:25:04.269Z,1013.26
2018-08-23T11:26:04.386Z,1013.24
2018-08-23T11:27:04.308Z,1013.24
2018-08-23T11:28:04.403Z,1013.18
2018-08-23T11:29:04.279Z,1013.19
2018-08-23T11:30:04.584Z,1013.16
2018-08-23T11:31:04.319Z,1013.11
2018-08-23T11:32:04.514Z,1013.11
2018-08-23T11:33:04.187Z,1013.08
2018-08-23T11:34:04.180Z,1013.08
2018-08-23T11:35:04.442Z,1013.08
2018-08-23T11:36:04.634Z,1013.04
2018-08-23T11:37:04.297Z,1013.07
2018-08-23T11:38:04.194Z,1013.1
2018-08-23T11:39:04.113Z,1013.05
2018-08-23T11:40:04.214Z,1013.01
2018-08-23T11:41:04.294Z,1013.03
2018-08-23T11:42:04.194Z,1013.03
2018-08-23T11:43:04.342Z,1013.01
2018-08-23T11:44:04.219Z,1012.99
2018-08-23T11:45:04.201Z,1012.99
2018-08-23T11:46:04.163Z,1012.98
2018-08-23T11:47:04.339Z,1013
2018-08-23T11:48:04.325Z,1012.88
2018-08-23T11:49:04.276Z,1012.87
2018-08-23T11:50:04.410Z,1012.91
2018-08-23T11:51:04.408Z,1012.87
2018-08-23T11:52:04.285Z,1012.85
2018-08-23T11:53:04.539Z,1012.82
2018-08-23T11:54:04.191Z,1012.77
2018-08-23T11:55:04.080Z,1012.76
2018-08-23T11:56:04.365Z,1012.77
2018-08-23T11:57:04.215Z,1012.76
2018-08-23T11:58:04.695Z,1012.69
2018-08-23T11:59:04.891Z,1012.74
2018-08-23T12:00:04.298Z,1012.7
2018-08-23T12:01:04.232Z,1012.72
2018-08-23T12:02:04.357Z,1012.72
2018-08-23T12:03:04.509Z,1012.6
2018-08-23T12:04:04.532Z,1012.65
2018-08-23T12:05:04.412Z,1012.62
2018-08-23T12:06:04.225Z,1012.61
2018-08-23T12:07:04.296Z,1012.58
2018-08-23T12:08:04.393Z,1012.55